Wollogorang, Australia
Current Conditions -  °F | °C
As of 7:00 AM on Saturday 01 Nov 2014 (Local Time) from YGTE Reporting Station
Clear Clear  
Wind Chill: 77°   Ceiling: Unl
Heat Index: 78°   Visibility: 6mi
Dew Point: 72°   Wind: 3mph
Humidity: 83%   Direction: 30°NNE
Pressure: 29.88"   Gusts: NA
Location:  17.2°S, 137.93°E
Report Text: YGTE 312200Z AUTO 03003KT 9999 // NCD 25/22 Q1012
Loading
Personal Weather Stations






























Interactive Weather Map
Tropical Storm Tracking
New forecast layout! Learn more

10-Day Weather Forecast

Advertisements
Track Severe Weather on mobile